createdAt,value
2022-10-23T00:00:55.287Z,101123.50
2022-10-23T00:02:28.299Z,101124.44
2022-10-23T00:04:01.717Z,101121.84
2022-10-23T00:05:33.854Z,101118.28
2022-10-23T00:07:05.461Z,101117.53
2022-10-23T00:08:37.986Z,101116.75
2022-10-23T00:10:10.241Z,101115.03
2022-10-23T00:11:42.226Z,101120.31
2022-10-23T00:13:13.839Z,101114.16
2022-10-23T00:14:45.421Z,101109.88
2022-10-23T00:16:17.201Z,101106.44
2022-10-23T00:17:50.424Z,101108.28
2022-10-23T00:19:22.142Z,101106.56
2022-10-23T00:20:53.806Z,101106.56
2022-10-23T00:22:25.444Z,101111.00
2022-10-23T00:23:57.471Z,101117.16
2022-10-23T00:25:29.173Z,101118.16
2022-10-23T00:27:00.799Z,101110.41
2022-10-23T00:28:32.548Z,101118.47
2022-10-23T00:30:06.060Z,101107.97
2022-10-23T00:31:38.558Z,101104.44
2022-10-23T00:33:11.556Z,101107.16
2022-10-23T00:34:43.159Z,101116.91
2022-10-23T00:36:16.650Z,101110.13
2022-10-23T00:37:48.862Z,101113.81
2022-10-23T00:39:20.463Z,101121.97
2022-10-23T00:40:52.263Z,101122.03
2022-10-23T00:42:24.193Z,101116.88
2022-10-23T00:44:00.127Z,101119.44
2022-10-23T00:45:34.286Z,101106.16
2022-10-23T00:47:05.903Z,101099.94
2022-10-23T00:48:38.877Z,101101.78
2022-10-23T00:50:11.016Z,101094.78
2022-10-23T00:51:47.161Z,101092.13
2022-10-23T00:53:21.000Z,101089.66
2022-10-23T00:54:52.782Z,101088.13
2022-10-23T00:56:25.720Z,101088.22
2022-10-23T00:57:57.551Z,101088.22
2022-10-23T00:59:29.807Z,101079.34
2022-10-23T01:01:01.584Z,101078.41
2022-10-23T01:02:33.384Z,101084.63
2022-10-23T01:04:07.943Z,101085.50
2022-10-23T01:07:29.487Z,101094.56
2022-10-23T01:09:11.224Z,101089.34
2022-10-23T01:10:46.979Z,101080.53
2022-10-23T01:12:26.746Z,101088.47
2022-10-23T01:15:44.921Z,101093.78
2022-10-23T01:17:23.566Z,101099.06
2022-10-23T01:19:03.554Z,101094.69
2022-10-23T01:20:40.501Z,101094.00
2022-10-23T01:22:26.924Z,101094.06
2022-10-23T01:24:19.722Z,101098.59
2022-10-23T01:26:04.136Z,101098.78
2022-10-23T01:27:42.763Z,101091.78
2022-10-23T01:29:20.036Z,101094.41
2022-10-23T01:30:53.739Z,101093.56
2022-10-23T01:32:35.262Z,101087.41
2022-10-23T01:34:13.089Z,101082.22
2022-10-23T01:35:49.423Z,101077.84
2022-10-23T01:37:27.155Z,101075.22
2022-10-23T01:39:05.144Z,101071.69
2022-10-23T01:40:44.065Z,101071.63
2022-10-23T01:42:21.615Z,101062.66
2022-10-23T01:44:01.403Z,101066.09
2022-10-23T01:45:41.131Z,101056.59
2022-10-23T01:47:18.877Z,101061.97
2022-10-23T01:49:10.855Z,101060.25
2022-10-23T01:50:44.127Z,101064.75
2022-10-23T01:52:18.077Z,101055.09
2022-10-23T01:53:55.885Z,101055.09
2022-10-23T01:55:27.675Z,101062.25
2022-10-23T01:57:02.604Z,101053.38
2022-10-23T01:58:37.411Z,101051.53
2022-10-23T02:00:14.134Z,101044.38
2022-10-23T02:02:00.313Z,101048.03
2022-10-23T02:03:35.403Z,101038.25
2022-10-23T02:05:11.601Z,101032.88
2022-10-23T02:06:43.265Z,101035.53
2022-10-23T02:08:15.060Z,101030.22
2022-10-23T02:09:47.584Z,101029.38
2022-10-23T02:11:21.702Z,101028.28
2022-10-23T02:12:59.450Z,101029.19
2022-10-23T02:14:40.909Z,101021.25
2022-10-23T02:16:21.934Z,101031.78
2022-10-23T02:18:03.154Z,101021.19
2022-10-23T02:19:42.712Z,101022.78
2022-10-23T02:21:21.942Z,101024.50
2022-10-23T02:23:00.229Z,101023.63
2022-10-23T02:24:35.186Z,101029.84
2022-10-23T02:26:17.650Z,101015.91
2022-10-23T02:27:56.829Z,101022.97
2022-10-23T02:29:35.052Z,101010.84
2022-10-23T02:31:10.185Z,101008.13
2022-10-23T02:32:48.291Z,101008.22
2022-10-23T02:34:21.535Z,101007.34
2022-10-23T02:35:53.236Z,101009.94
2022-10-23T02:37:29.034Z,100999.25
2022-10-23T02:39:00.876Z,101001.88
2022-10-23T02:40:38.491Z,100993.88
2022-10-23T02:42:20.357Z,101000.09
2022-10-23T02:44:03.545Z,100989.63
2022-10-23T02:45:44.472Z,101005.50
2022-10-23T02:47:30.841Z,100995.84
2022-10-23T02:49:13.519Z,100990.53
2022-10-23T02:50:55.834Z,100990.44
2022-10-23T02:52:33.012Z,100995.75
2022-10-23T02:54:08.703Z,100995.75
2022-10-23T02:55:56.017Z,100988.59
2022-10-23T02:57:32.748Z,100985.16
2022-10-23T02:59:09.298Z,100991.31
2022-10-23T03:00:45.896Z,100990.31
2022-10-23T03:02:22.927Z,100992.81
2022-10-23T03:03:58.334Z,100989.09
2022-10-23T03:05:35.698Z,100980.16
2022-10-23T03:07:10.851Z,100988.09
2022-10-23T03:08:43.861Z,100979.31
2022-10-23T03:10:15.876Z,100983.72
2022-10-23T03:11:47.478Z,100981.94
2022-10-23T03:13:19.216Z,100976.66
2022-10-23T03:14:51.175Z,100980.16
2022-10-23T03:16:22.764Z,100965.22
2022-10-23T03:17:57.545Z,100960.72
2022-10-23T03:19:30.495Z,100958.66
2022-10-23T03:21:04.737Z,100957.59
2022-10-23T03:22:38.788Z,100953.22
2022-10-23T03:24:11.555Z,100951.53
2022-10-23T03:25:47.109Z,100942.78
2022-10-23T03:27:32.550Z,100941.06
2022-10-23T03:29:08.169Z,100935.78
2022-10-23T03:30:46.068Z,100934.78
2022-10-23T03:32:17.850Z,100934.78
2022-10-23T03:33:49.812Z,100931.28
2022-10-23T03:35:21.498Z,100937.50
2022-10-23T03:36:54.555Z,100930.41
2022-10-23T03:38:26.238Z,100933.06
2022-10-23T03:39:57.872Z,100927.84
2022-10-23T03:41:29.792Z,100926.06
2022-10-23T03:43:01.576Z,100926.84
2022-10-23T03:44:34.998Z,100926.91
2022-10-23T03:46:09.796Z,100941.06
2022-10-23T03:47:41.778Z,100936.56
2022-10-23T03:49:13.693Z,100939.28
2022-10-23T03:50:48.229Z,100941.94
2022-10-23T03:52:21.324Z,100943.78
2022-10-23T03:53:55.807Z,100943.88
2022-10-23T03:55:28.157Z,100946.44
2022-10-23T03:57:00.624Z,100941.06
2022-10-23T03:58:32.294Z,100946.38
2022-10-23T04:00:06.333Z,100938.34
2022-10-23T04:01:47.983Z,100944.50
2022-10-23T04:03:19.808Z,100942.66
2022-10-23T04:04:51.481Z,100940.00
2022-10-23T04:06:24.041Z,100944.38
2022-10-23T04:08:01.933Z,100948.78
2022-10-23T04:09:33.625Z,100944.44
2022-10-23T04:11:05.649Z,100940.94
2022-10-23T04:12:44.801Z,100939.22
2022-10-23T04:14:17.224Z,100933.78
2022-10-23T04:15:49.389Z,100933.69
2022-10-23T04:17:21.691Z,100927.47
2022-10-23T04:18:54.577Z,100932.78
2022-10-23T04:20:26.190Z,100934.56
2022-10-23T04:21:57.853Z,100935.41
2022-10-23T04:23:30.821Z,100937.13
2022-10-23T04:25:02.716Z,100925.69
2022-10-23T04:26:36.030Z,100930.28
2022-10-23T04:28:07.680Z,100927.69
2022-10-23T04:29:42.819Z,100922.34
2022-10-23T04:31:15.122Z,100916.03
2022-10-23T04:32:50.317Z,100915.09
2022-10-23T04:34:22.668Z,100910.81
2022-10-23T04:35:54.359Z,100921.47
2022-10-23T04:37:26.007Z,100910.09
2022-10-23T04:38:58.965Z,100913.75
2022-10-23T04:40:30.691Z,100910.31
2022-10-23T04:42:02.288Z,100919.22
2022-10-23T04:43:33.930Z,100904.16
2022-10-23T04:45:08.262Z,100906.75
2022-10-23T04:46:40.629Z,100912.97
2022-10-23T04:48:12.203Z,100895.47
2022-10-23T04:50:03.730Z,100906.06
2022-10-23T04:51:54.164Z,100902.63
2022-10-23T04:53:50.701Z,100895.63
2022-10-23T04:56:01.977Z,100895.00
2022-10-23T04:57:52.889Z,100894.19
2022-10-23T04:59:28.445Z,100895.13
2022-10-23T05:01:00.643Z,100897.84
2022-10-23T05:02:33.503Z,100901.47
2022-10-23T05:04:05.196Z,100897.78
2022-10-23T05:05:41.777Z,100890.78
2022-10-23T05:07:36.344Z,100887.97
2022-10-23T05:09:34.220Z,100903.06
2022-10-23T05:11:22.656Z,100890.78
2022-10-23T05:12:55.633Z,100895.13
2022-10-23T05:14:27.792Z,100892.50
2022-10-23T05:16:00.628Z,100894.19
2022-10-23T05:17:35.566Z,100892.28
2022-10-23T05:19:10.802Z,100884.41
2022-10-23T05:20:46.032Z,100879.13
2022-10-23T05:22:18.628Z,100885.25
2022-10-23T05:23:53.835Z,100873.75
2022-10-23T05:25:26.895Z,100877.31
2022-10-23T05:27:09.007Z,100871.31
2022-10-23T05:28:43.152Z,100863.47
2022-10-23T05:30:18.178Z,100869.59
2022-10-23T05:31:54.597Z,100853.66
2022-10-23T05:33:26.702Z,100858.16
2022-10-23T05:34:59.426Z,100853.72
2022-10-23T05:36:33.745Z,100857.25
2022-10-23T05:38:07.126Z,100851.94
2022-10-23T05:39:38.938Z,100855.53
2022-10-23T05:41:15.158Z,100849.47
2022-10-23T05:42:48.879Z,100850.34
2022-10-23T05:44:24.701Z,100854.59
2022-10-23T05:46:14.574Z,100848.56
2022-10-23T05:47:51.746Z,100860.00
2022-10-23T05:49:59.223Z,100857.50
2022-10-23T05:51:51.064Z,100847.91
2022-10-23T05:53:40.098Z,100852.34
2022-10-23T05:55:26.840Z,100850.47
2022-10-23T05:57:08.120Z,100842.63
2022-10-23T05:58:50.487Z,100840.84
2022-10-23T06:00:31.402Z,100838.97
2022-10-23T06:02:22.704Z,100837.25
2022-10-23T06:04:03.991Z,100834.63
2022-10-23T06:05:52.840Z,100831.03
2022-10-23T06:07:35.129Z,100830.09
2022-10-23T06:09:09.737Z,100820.47
2022-10-23T06:10:44.440Z,100826.59
2022-10-23T06:12:16.879Z,100830.03
2022-10-23T06:13:52.720Z,100827.38
2022-10-23T06:15:26.144Z,100830.09
2022-10-23T06:17:04.181Z,100826.53
2022-10-23T06:18:44.557Z,100827.47
2022-10-23T06:20:19.178Z,100820.47
2022-10-23T06:21:59.285Z,100813.31
2022-10-23T06:23:46.627Z,100810.47
2022-10-23T06:25:35.778Z,100804.09
2022-10-23T06:27:09.512Z,100812.03
2022-10-23T06:28:47.045Z,100812.03
2022-10-23T06:30:20.192Z,100813.03
2022-10-23T06:31:53.988Z,100809.41
2022-10-23T06:33:25.628Z,100822.56
2022-10-23T06:34:57.329Z,100814.69
2022-10-23T06:36:29.714Z,100820.75
2022-10-23T06:38:10.564Z,100818.13
2022-10-23T06:39:47.632Z,100816.19
2022-10-23T06:41:23.018Z,100812.53
2022-10-23T06:42:59.523Z,100814.13
2022-10-23T06:44:34.119Z,100806.03
2022-10-23T06:46:15.049Z,100807.91
2022-10-23T06:48:01.869Z,100807.91
2022-10-23T06:49:53.835Z,100802.53
2022-10-23T06:51:29.482Z,100798.03
2022-10-23T06:53:01.555Z,100804.09
2022-10-23T06:54:33.292Z,100796.94
2022-10-23T06:56:28.981Z,100797.66
2022-10-23T06:58:00.765Z,100800.97
2022-10-23T06:59:33.272Z,100790.31
2022-10-23T07:01:07.728Z,100796.53
2022-10-23T07:02:41.232Z,100794.88
2022-10-23T07:04:14.513Z,100802.75
2022-10-23T07:05:47.435Z,100801.75
2022-10-23T07:07:19.969Z,100797.38
2022-10-23T07:08:53.704Z,100797.38
2022-10-23T07:11:03.622Z,100805.94
2022-10-23T07:12:35.469Z,100799.66
2022-10-23T07:14:32.131Z,100796.88
2022-10-23T07:16:10.633Z,100803.78
2022-10-23T07:17:43.747Z,100794.75
2022-10-23T07:19:15.596Z,100791.00
2022-10-23T07:21:05.641Z,100797.84
2022-10-23T07:22:38.410Z,100794.09
2022-10-23T07:24:17.163Z,100799.31
2022-10-23T07:25:48.886Z,100794.78
2022-10-23T07:27:26.367Z,100785.06
2022-10-23T07:29:01.323Z,100786.59
2022-10-23T07:30:33.284Z,100780.28
2022-10-23T07:32:06.519Z,100769.41
2022-10-23T07:34:17.720Z,100771.81
2022-10-23T07:35:52.530Z,100774.97
2022-10-23T07:37:30.427Z,100765.34
2022-10-23T07:39:04.591Z,100765.00
2022-10-23T07:40:37.770Z,100762.03
2022-10-23T07:42:11.942Z,100769.59
2022-10-23T07:43:45.509Z,100773.97
2022-10-23T07:45:17.310Z,100768.50
2022-10-23T07:46:50.750Z,100767.41
2022-10-23T07:48:23.852Z,100771.41
2022-10-23T07:50:14.653Z,100767.66
2022-10-23T07:51:50.497Z,100764.75
2022-10-23T07:53:25.255Z,100764.47
2022-10-23T07:54:59.109Z,100768.50
2022-10-23T07:56:34.204Z,100765.50
2022-10-23T07:58:25.715Z,100766.78
2022-10-23T08:00:11.813Z,100767.88
2022-10-23T08:01:49.509Z,100756.31
2022-10-23T08:03:24.357Z,100765.13
2022-10-23T08:04:56.107Z,100754.72
2022-10-23T08:06:38.848Z,100758.28
2022-10-23T08:08:10.517Z,100747.38
2022-10-23T08:09:44.622Z,100752.22
2022-10-23T08:11:24.755Z,100761.53
2022-10-23T08:12:56.706Z,100749.50
2022-10-23T08:14:44.550Z,100749.81
2022-10-23T08:16:16.960Z,100751.03
2022-10-23T08:18:15.018Z,100757.63
2022-10-23T08:19:49.532Z,100752.00
2022-10-23T08:21:23.614Z,100749.75
2022-10-23T08:22:58.549Z,100751.25
2022-10-23T08:24:31.290Z,100752.31
2022-10-23T08:26:05.331Z,100755.91
2022-10-23T08:27:38.009Z,100748.13
2022-10-23T08:29:10.261Z,100751.53
2022-10-23T08:30:41.990Z,100751.72
2022-10-23T08:32:13.785Z,100751.63
2022-10-23T08:34:05.077Z,100751.63
2022-10-23T08:35:37.811Z,100752.19
2022-10-23T08:37:10.546Z,100762.16
2022-10-23T08:38:43.550Z,100762.50
2022-10-23T08:40:21.990Z,100756.81
2022-10-23T08:42:21.019Z,100747.06
2022-10-23T08:44:01.314Z,100739.06
2022-10-23T08:45:44.853Z,100742.75
2022-10-23T08:47:37.495Z,100750.25
2022-10-23T08:49:36.797Z,100749.16
2022-10-23T08:51:16.214Z,100748.88
2022-10-23T08:52:52.270Z,100741.16
2022-10-23T08:54:30.104Z,100743.22
2022-10-23T08:56:04.677Z,100742.69
2022-10-23T08:57:43.777Z,100748.91
2022-10-23T08:59:25.046Z,100744.25
2022-10-23T09:00:56.802Z,100739.59
2022-10-23T09:02:32.660Z,100726.81
2022-10-23T09:04:05.011Z,100716.63
2022-10-23T09:05:50.358Z,100707.38
2022-10-23T09:07:36.365Z,100700.88
2022-10-23T09:09:49.993Z,100709.41
2022-10-23T09:11:31.964Z,100705.47
2022-10-23T09:13:27.520Z,100705.16
2022-10-23T09:15:20.041Z,100693.13
2022-10-23T09:17:05.287Z,100685.56
2022-10-23T09:18:37.894Z,100679.91
2022-10-23T09:20:18.819Z,100686.66
2022-10-23T09:21:50.558Z,100683.44
2022-10-23T09:23:24.112Z,100689.41
2022-10-23T09:24:55.735Z,100686.84
2022-10-23T09:26:28.803Z,100676.94
2022-10-23T09:28:05.292Z,100673.66
2022-10-23T09:29:37.457Z,100671.75
2022-10-23T09:31:11.751Z,100672.69
2022-10-23T09:32:43.550Z,100674.41
2022-10-23T09:34:20.221Z,100677.47
2022-10-23T09:35:54.706Z,100684.69
2022-10-23T09:37:28.444Z,100680.97
2022-10-23T09:39:00.942Z,100674.25
2022-10-23T09:40:40.338Z,100665.97
2022-10-23T09:42:22.952Z,100673.84
2022-10-23T09:44:18.201Z,100669.28
2022-10-23T09:45:58.162Z,100671.53
2022-10-23T09:47:29.940Z,100658.53
2022-10-23T09:49:03.580Z,100652.66
2022-10-23T09:50:37.798Z,100660.31
2022-10-23T09:52:24.090Z,100655.31
2022-10-23T09:53:58.746Z,100645.94
2022-10-23T09:55:30.563Z,100649.13
2022-10-23T09:57:06.592Z,100638.97
2022-10-23T09:58:51.908Z,100639.72
2022-10-23T10:00:25.776Z,100631.66
2022-10-23T10:01:59.445Z,100636.13
2022-10-23T10:03:52.624Z,100627.09
2022-10-23T10:05:31.072Z,100635.72
2022-10-23T10:07:13.380Z,100632.63
2022-10-23T10:08:50.712Z,100633.66
2022-10-23T10:10:23.503Z,100633.75
2022-10-23T10:12:00.094Z,100637.84
2022-10-23T10:13:54.114Z,100625.66
2022-10-23T10:15:32.212Z,100613.19
2022-10-23T10:17:11.604Z,100607.88
2022-10-23T10:18:50.596Z,100608.94
2022-10-23T10:20:38.106Z,100615.25
2022-10-23T10:22:26.125Z,100622.25
2022-10-23T10:24:02.735Z,100622.16
2022-10-23T10:25:37.555Z,100622.03
2022-10-23T10:27:20.752Z,100619.72
2022-10-23T10:29:06.204Z,100620.22
2022-10-23T10:30:49.575Z,100611.38
2022-10-23T10:32:34.539Z,100602.31
2022-10-23T10:34:15.254Z,100604.97
2022-10-23T10:35:56.774Z,100594.13
2022-10-23T10:37:44.922Z,100588.25
2022-10-23T10:39:31.955Z,100581.97
2022-10-23T10:41:22.377Z,100581.97
2022-10-23T10:43:20.041Z,100587.28
2022-10-23T10:45:08.080Z,100578.34
2022-10-23T10:46:51.391Z,100568.31
2022-10-23T10:48:38.986Z,100563.00
2022-10-23T10:50:34.530Z,100560.53
2022-10-23T10:52:25.830Z,100554.72
2022-10-23T10:54:24.760Z,100553.88
2022-10-23T10:55:59.236Z,100554.72
2022-10-23T10:57:33.741Z,100547.81
2022-10-23T10:59:14.723Z,100541.84
2022-10-23T11:00:52.366Z,100538.97
2022-10-23T11:02:30.120Z,100550.91
2022-10-23T11:04:06.708Z,100537.59
2022-10-23T11:05:43.063Z,100534.06
2022-10-23T11:07:19.423Z,100546.00
2022-10-23T11:08:58.096Z,100533.41
2022-10-23T11:10:44.397Z,100529.78
2022-10-23T11:12:20.276Z,100528.94
2022-10-23T11:13:55.780Z,100530.84
2022-10-23T11:15:34.103Z,100516.47
2022-10-23T11:17:12.879Z,100524.56
2022-10-23T11:18:53.788Z,100521.28
2022-10-23T11:20:38.827Z,100510.63
2022-10-23T11:22:16.588Z,100503.25
2022-10-23T11:24:35.404Z,100502.41
2022-10-23T11:26:20.404Z,100490.78
2022-10-23T11:28:13.753Z,100490.88
2022-10-23T11:30:13.574Z,100478.44
2022-10-23T11:31:55.274Z,100507.00
2022-10-23T11:34:00.553Z,100506.50
2022-10-23T11:35:48.838Z,100500.41
2022-10-23T11:37:22.527Z,100497.75
2022-10-23T11:38:59.056Z,100504.56
2022-10-23T11:40:30.840Z,100496.69
2022-10-23T11:42:14.808Z,100492.97
2022-10-23T11:43:49.903Z,100495.88
2022-10-23T11:45:33.158Z,100486.78
2022-10-23T11:47:25.154Z,100482.97
2022-10-23T11:48:58.366Z,100490.56
2022-10-23T11:50:33.575Z,100483.06
2022-10-23T11:52:22.204Z,100488.16
2022-10-23T11:54:05.472Z,100496.44
2022-10-23T11:55:38.175Z,100489.53
2022-10-23T11:57:13.042Z,100493.78
2022-10-23T11:58:47.069Z,100479.97
2022-10-23T12:00:21.936Z,100481.97
2022-10-23T12:01:56.775Z,100481.84
2022-10-23T12:03:38.642Z,100473.09
2022-10-23T12:05:31.532Z,100480.03
2022-10-23T12:07:15.067Z,100477.00
2022-10-23T12:08:51.129Z,100475.41
2022-10-23T12:10:28.651Z,100471.31
2022-10-23T12:12:28.187Z,100473.97
2022-10-23T12:14:00.046Z,100468.16
2022-10-23T12:15:32.419Z,100454.34
2022-10-23T12:17:28.751Z,100461.97
2022-10-23T12:19:17.718Z,100464.03
2022-10-23T12:20:54.264Z,100451.41
2022-10-23T12:24:31.660Z,100454.06
2022-10-23T12:26:45.987Z,100450.06
2022-10-23T12:28:30.466Z,100441.22
2022-10-23T12:30:22.510Z,100449.72
2022-10-23T12:32:00.246Z,100431.03
2022-10-23T12:33:39.985Z,100434.44
2022-10-23T12:35:30.057Z,100422.91
2022-10-23T12:37:17.047Z,100422.63
2022-10-23T12:38:49.846Z,100425.56
2022-10-23T12:40:22.524Z,100427.16
2022-10-23T12:41:54.670Z,100426.66
2022-10-23T12:43:28.861Z,100413.81
2022-10-23T12:45:03.658Z,100417.81
2022-10-23T12:46:39.387Z,100411.16
2022-10-23T12:48:19.369Z,100407.28
2022-10-23T12:49:51.925Z,100410.06
2022-10-23T12:51:26.132Z,100406.53
2022-10-23T12:53:01.861Z,100401.56
2022-10-23T12:54:39.759Z,100396.09
2022-10-23T12:56:13.029Z,100397.91
2022-10-23T12:57:46.007Z,100388.44
2022-10-23T12:59:20.539Z,100389.56
2022-10-23T13:00:54.411Z,100388.09
2022-10-23T13:02:27.798Z,100383.97
2022-10-23T13:04:23.698Z,100390.16
2022-10-23T13:05:58.711Z,100378.78
2022-10-23T13:07:33.972Z,100380.22
2022-10-23T13:09:22.001Z,100376.94
2022-10-23T13:11:15.634Z,100382.91
2022-10-23T13:12:53.728Z,100378.91
2022-10-23T13:14:34.343Z,100368.94
2022-10-23T13:16:14.608Z,100364.34
2022-10-23T13:17:58.918Z,100370.16
2022-10-23T13:19:30.844Z,100351.56
2022-10-23T13:22:34.481Z,100349.06
2022-10-23T13:24:20.563Z,100346.03
2022-10-23T13:25:54.504Z,100338.63
2022-10-23T13:27:31.436Z,100340.69
2022-10-23T13:29:08.741Z,100339.72
2022-10-23T13:30:43.591Z,100332.94
2022-10-23T13:32:22.842Z,100337.44
2022-10-23T13:34:14.747Z,100330.28
2022-10-23T13:35:55.282Z,100330.75
2022-10-23T13:37:29.762Z,100323.38
2022-10-23T13:39:04.054Z,100326.78
2022-10-23T13:40:37.237Z,100325.81
2022-10-23T13:42:13.412Z,100317.19
2022-10-23T13:43:48.348Z,100313.44
2022-10-23T13:45:21.900Z,100318.03
2022-10-23T13:46:53.695Z,100313.56
2022-10-23T13:48:25.769Z,100313.66
2022-10-23T13:49:57.456Z,100309.78
2022-10-23T13:51:32.732Z,100310.50
2022-10-23T13:53:05.560Z,100304.69
2022-10-23T13:54:37.172Z,100309.78
2022-10-23T13:56:12.372Z,100305.03
2022-10-23T13:57:44.184Z,100303.34
2022-10-23T13:59:17.110Z,100307.97
2022-10-23T14:00:50.505Z,100305.16
2022-10-23T14:02:23.756Z,100299.13
2022-10-23T14:03:57.899Z,100303.00
2022-10-23T14:05:29.740Z,100301.41
2022-10-23T14:07:01.546Z,100300.56
2022-10-23T14:08:33.188Z,100305.19
2022-10-23T14:10:05.760Z,100303.47
2022-10-23T14:11:38.789Z,100291.72
2022-10-23T14:13:10.560Z,100302.28
2022-10-23T14:14:42.246Z,100286.72
2022-10-23T14:16:15.995Z,100291.19
2022-10-23T14:17:47.703Z,100293.75
2022-10-23T14:19:19.301Z,100293.53
2022-10-23T14:20:51.424Z,100300.56
2022-10-23T14:22:23.068Z,100291.59
2022-10-23T14:23:55.022Z,100285.06
2022-10-23T14:25:26.616Z,100292.22
2022-10-23T14:26:59.699Z,100296.69
2022-10-23T14:28:31.570Z,100282.38
2022-10-23T14:30:03.969Z,100276.81
2022-10-23T14:31:35.581Z,100278.47
2022-10-23T14:33:07.201Z,100268.66
2022-10-23T14:34:41.337Z,100268.81
2022-10-23T14:36:13.334Z,100263.72
2022-10-23T14:37:45.511Z,100260.19
2022-10-23T14:39:17.847Z,100265.91
2022-10-23T14:40:49.478Z,100267.06
2022-10-23T14:42:22.811Z,100259.19
2022-10-23T14:43:54.936Z,100267.34
2022-10-23T14:45:26.652Z,100262.38
2022-10-23T14:46:59.554Z,100258.38
2022-10-23T14:48:31.271Z,100254.13
2022-10-23T14:50:03.805Z,100268.81
2022-10-23T14:51:35.549Z,100262.88
2022-10-23T14:53:07.234Z,100270.28
2022-10-23T14:54:39.052Z,100276.09
2022-10-23T14:56:10.969Z,100273.91
2022-10-23T14:57:44.158Z,100283.97
2022-10-23T14:59:16.248Z,100306.53
2022-10-23T15:00:57.587Z,100327.97
2022-10-23T15:02:29.362Z,100333.06
2022-10-23T15:04:01.009Z,100322.13
2022-10-23T15:05:32.728Z,100319.34
2022-10-23T15:07:04.400Z,100321.16
2022-10-23T15:08:36.605Z,100314.13
2022-10-23T15:10:09.142Z,100325.19
2022-10-23T15:11:41.052Z,100320.94
2022-10-23T15:13:14.138Z,100317.53
2022-10-23T15:14:45.777Z,100325.63
2022-10-23T15:16:17.554Z,100330.34
2022-10-23T15:17:49.239Z,100336.41
2022-10-23T15:19:20.912Z,100343.88
2022-10-23T15:20:52.814Z,100337.09
2022-10-23T15:22:24.429Z,100335.66
2022-10-23T15:23:56.178Z,100337.59
2022-10-23T15:25:27.849Z,100329.69
2022-10-23T15:27:00.323Z,100329.81
2022-10-23T15:28:33.570Z,100322.75
2022-10-23T15:30:06.286Z,100314.75
2022-10-23T15:31:49.272Z,100304.13
2022-10-23T15:33:21.646Z,100306.16
2022-10-23T15:34:54.699Z,100317.66
2022-10-23T15:36:27.066Z,100316.22
2022-10-23T15:37:58.793Z,100323.59
2022-10-23T15:39:35.961Z,100312.94
2022-10-23T15:41:15.693Z,100305.06
2022-10-23T15:42:49.826Z,100301.03
2022-10-23T15:44:24.799Z,100304.91
2022-10-23T15:45:56.655Z,100311.53
2022-10-23T15:47:28.385Z,100302.81
2022-10-23T15:49:00.698Z,100312.50
2022-10-23T15:50:32.959Z,100324.13
2022-10-23T15:52:04.855Z,100329.66
2022-10-23T15:53:36.547Z,100336.81
2022-10-23T15:55:11.603Z,100346.84
2022-10-23T15:56:43.712Z,100338.97
2022-10-23T15:58:15.595Z,100342.81
2022-10-23T15:59:48.647Z,100341.25
2022-10-23T16:01:20.650Z,100328.91
2022-10-23T16:02:52.955Z,100328.66
2022-10-23T16:04:24.792Z,100336.75
2022-10-23T16:05:56.526Z,100337.00
2022-10-23T16:07:28.181Z,100331.78
2022-10-23T16:08:59.982Z,100333.59
2022-10-23T16:10:31.747Z,100330.09
2022-10-23T16:12:03.845Z,100325.13
2022-10-23T16:13:35.466Z,100336.72
2022-10-23T16:15:09.354Z,100320.00
2022-10-23T16:16:41.221Z,100324.50
2022-10-23T16:18:15.953Z,100320.88
2022-10-23T16:19:47.718Z,100310.22
2022-10-23T16:21:21.996Z,100315.31
2022-10-23T16:22:54.960Z,100310.22
2022-10-23T16:24:26.633Z,100308.41
2022-10-23T16:26:02.650Z,100303.81
2022-10-23T16:27:34.483Z,100302.13
2022-10-23T16:29:08.090Z,100316.38
2022-10-23T16:30:42.466Z,100328.09
2022-10-23T16:32:14.154Z,100326.63
2022-10-23T16:33:46.287Z,100326.88
2022-10-23T16:35:18.293Z,100319.75
2022-10-23T16:37:01.521Z,100337.63
2022-10-23T16:38:55.959Z,100388.72
2022-10-23T16:40:51.977Z,100376.63
2022-10-23T16:42:52.625Z,100351.84
2022-10-23T16:44:37.008Z,100345.41
2022-10-23T16:46:14.454Z,100347.13
2022-10-23T16:47:46.182Z,100338.28
2022-10-23T16:49:17.984Z,100316.88
2022-10-23T16:50:49.611Z,100303.69
2022-10-23T16:52:21.257Z,100302.25
2022-10-23T16:54:14.505Z,100265.13
2022-10-23T16:55:46.217Z,100251.94
2022-10-23T16:57:17.923Z,100259.06
2022-10-23T16:58:49.624Z,100249.72
2022-10-23T17:00:22.559Z,100244.56
2022-10-23T17:01:55.786Z,100242.06
2022-10-23T17:03:27.776Z,100233.22
2022-10-23T17:04:59.663Z,100231.88
2022-10-23T17:06:35.052Z,100232.81
2022-10-23T17:08:06.685Z,100243.34
2022-10-23T17:09:38.595Z,100254.00
2022-10-23T17:11:13.138Z,100278.03
2022-10-23T17:12:45.387Z,100281.88
2022-10-23T17:14:19.676Z,100293.56
2022-10-23T17:15:51.389Z,100289.25
2022-10-23T17:17:24.405Z,100283.19
2022-10-23T17:18:56.645Z,100297.66
2022-10-23T17:20:28.302Z,100292.31
2022-10-23T17:22:00.836Z,100274.69
2022-10-23T17:23:32.639Z,100265.97
2022-10-23T17:25:05.142Z,100270.41
2022-10-23T17:26:37.235Z,100260.75
2022-10-23T17:28:08.879Z,100238.53
2022-10-23T17:29:40.557Z,100229.38
2022-10-23T17:31:17.088Z,100245.53
2022-10-23T17:32:50.067Z,100260.84
2022-10-23T17:34:23.204Z,100276.41
2022-10-23T17:35:54.893Z,100287.47
2022-10-23T17:37:26.728Z,100282.25
2022-10-23T17:38:58.837Z,100290.47
2022-10-23T17:40:32.875Z,100292.28
2022-10-23T17:42:04.573Z,100293.56
2022-10-23T17:43:37.298Z,100297.28
2022-10-23T17:45:09.848Z,100297.28
2022-10-23T17:46:41.800Z,100312.38
2022-10-23T17:48:16.720Z,100307.91
2022-10-23T17:49:48.426Z,100300.91
2022-10-23T17:51:21.999Z,100315.88
2022-10-23T17:52:53.656Z,100316.84
2022-10-23T17:54:27.049Z,100312.47
2022-10-23T17:56:22.369Z,100306.22
2022-10-23T17:57:54.009Z,100307.69
2022-10-23T17:59:25.674Z,100308.44
2022-10-23T18:00:57.687Z,100310.88
2022-10-23T18:02:29.541Z,100309.91
2022-10-23T18:04:06.221Z,100307.88
2022-10-23T18:07:15.484Z,100279.72
2022-10-23T18:08:48.679Z,100278.00
2022-10-23T18:10:20.409Z,100270.03
2022-10-23T18:11:52.695Z,100270.88
2022-10-23T18:13:24.355Z,100263.28
2022-10-23T18:14:56.590Z,100258.28
2022-10-23T18:16:28.760Z,100269.31
2022-10-23T18:18:00.402Z,100275.72
2022-10-23T18:19:34.236Z,100270.31
2022-10-23T18:21:06.999Z,100268.50
2022-10-23T18:22:38.969Z,100271.38
2022-10-23T18:24:11.001Z,100253.94
2022-10-23T18:25:43.568Z,100256.91
2022-10-23T18:27:15.204Z,100268.50
2022-10-23T18:28:49.235Z,100256.31
2022-10-23T18:30:20.830Z,100246.50
2022-10-23T18:31:52.605Z,100252.06
2022-10-23T18:33:24.221Z,100252.16
2022-10-23T18:34:57.327Z,100253.84